Time;durP1;ratioP1;P1;durP2;ratioP2;P2;SDS_P1;SDS_P2;PMS_P1;PMS_P2;Temp;Humidity;BMP_temperature;BMP_pressure;BME280_temperature;BME280_humidity;BME280_pressure;Samples;Min_cycle;Max_cycle;Signal;HPM_P1;HPM_P2
2023/03/16 00:01:40;;;;;;;17.75;5.03;;;;;;;;;;5034474;28;20063;-65
2023/03/16 00:04:06;;;;;;;19.38;6.28;;;;;;;;;;5051589;28;20091;-65
2023/03/16 00:06:33;;;;;;;17.27;6.55;;;;;;;;;;5030614;28;20480;-65
2023/03/16 00:08:59;;;;;;;17.83;6.05;;;;;;;;;;5052611;28;20067;-66
2023/03/16 00:11:25;;;;;;;15.98;5.78;;;;;;;;;;5027891;28;20049;-65
2023/03/16 00:13:52;;;;;;;15.07;6.35;;;;;;;;;;5052561;28;20076;-65
2023/03/16 00:16:18;;;;;;;20.65;6.82;;;;;;;;;;5025618;28;20048;-65
2023/03/16 00:18:45;;;;;;;24.50;6.85;;;;;;;;;;5052161;28;20140;-65
2023/03/16 00:21:12;;;;;;;25.15;6.57;;;;;;;;;;5037306;28;20098;-65
2023/03/16 00:23:39;;;;;;;18.80;6.18;;;;;;;;;;5052469;28;20060;-66
2023/03/16 00:26:06;;;;;;;19.23;5.82;;;;;;;;;;5035882;28;20132;-66
2023/03/16 00:28:34;;;;;;;17.63;6.10;;;;;;;;;;5051791;28;20049;-66
2023/03/16 00:31:00;;;;;;;;;;;;;;;;;;5048634;28;20575;-66
2023/03/16 00:33:26;;;;;;;18.50;5.40;;;;;;;;;;5052271;28;19950;-65
2023/03/16 00:36:00;;;;;;;19.25;5.43;;;;;;;;;;5043974;28;20059;-65
2023/03/16 00:38:31;;;;;;;19.02;5.53;;;;;;;;;;5051334;28;20056;-65
2023/03/16 00:40:57;;;;;;;13.15;4.57;;;;;;;;;;5042402;28;20068;-65
2023/03/16 00:43:26;;;;;;;15.23;4.88;;;;;;;;;;5052125;28;20041;-65
2023/03/16 00:46:00;;;;;;;14.95;4.97;;;;;;;;;;5042873;28;20051;-65
2023/03/16 00:48:26;;;;;;;19.45;4.50;;;;;;;;;;5051494;28;20052;-65
2023/03/16 00:50:53;;;;;;;9.50;4.45;;;;;;;;;;5031927;28;20049;-65
2023/03/16 00:53:21;;;;;;;11.55;4.05;;;;;;;;;;5051885;28;20073;-65
2023/03/16 00:55:47;;;;;;;15.43;3.90;;;;;;;;;;5040989;28;20072;-65
2023/03/16 00:58:13;;;;;;;14.13;3.75;;;;;;;;;;5051575;28;20044;-65
2023/03/16 01:00:40;;;;;;;12.02;3.25;;;;;;;;;;5040293;28;20092;-65
2023/03/16 01:03:06;;;;;;;15.25;4.25;;;;;;;;;;5051540;28;20515;-65
2023/03/16 01:05:32;;;;;;;15.43;3.60;;;;;;;;;;5028586;28;20050;-65
2023/03/16 01:08:01;;;;;;;14.13;3.60;;;;;;;;;;5050965;28;20052;-65
2023/03/16 01:10:28;;;;;;;8.90;2.67;;;;;;;;;;5038961;28;20489;-65
2023/03/16 01:12:55;;;;;;;15.50;3.70;;;;;;;;;;5051209;28;20051;-65
2023/03/16 01:15:21;;;;;;;9.68;3.78;;;;;;;;;;5030397;28;20497;-65
2023/03/16 01:17:48;;;;;;;13.60;4.07;;;;;;;;;;5046386;28;20128;-65
2023/03/16 01:20:18;;;;;;;13.52;4.28;;;;;;;;;;5032398;28;20046;-65
2023/03/16 01:22:44;;;;;;;15.73;4.80;;;;;;;;;;5044155;28;20110;-65
2023/03/16 01:25:11;;;;;;;18.23;5.63;;;;;;;;;;5041742;28;20164;-65
2023/03/16 01:27:37;;;;;;;14.48;4.60;;;;;;;;;;5045662;28;20049;-66
2023/03/16 01:30:05;;;;;;;15.30;5.70;;;;;;;;;;5048505;28;20045;-65
2023/03/16 01:32:31;;;;;;;19.48;4.90;;;;;;;;;;5051353;28;20131;-65
2023/03/16 01:34:58;;;;;;;17.75;6.07;;;;;;;;;;5038944;28;20461;-65
2023/03/16 01:37:24;;;;;;;19.73;5.57;;;;;;;;;;5049616;28;20041;-65
2023/03/16 01:39:50;;;;;;;18.40;5.25;;;;;;;;;;5043517;28;20059;-65
2023/03/16 01:42:17;;;;;;;14.70;4.93;;;;;;;;;;5050651;28;20485;-65
2023/03/16 01:44:54;;;;;;;20.60;5.30;;;;;;;;;;5044589;28;20049;-65
2023/03/16 01:47:21;;;;;;;20.45;5.55;;;;;;;;;;5049878;28;20110;-65
2023/03/16 01:49:49;;;;;;;20.45;5.65;;;;;;;;;;5043802;28;20128;-65
2023/03/16 01:52:20;;;;;;;18.02;5.63;;;;;;;;;;5049480;28;20516;-65
2023/03/16 01:55:17;;;;;;;16.35;4.85;;;;;;;;;;5043609;28;20042;-65
2023/03/16 01:57:45;;;;;;;24.15;6.35;;;;;;;;;;5026174;28;20128;-65
2023/03/16 02:00:20;;;;;;;18.95;5.13;;;;;;;;;;5044118;28;20084;-65
2023/03/16 02:02:48;;;;;;;20.08;5.90;;;;;;;;;;5026889;28;20048;-65
2023/03/16 02:05:18;;;;;;;17.88;5.22;;;;;;;;;;5043895;28;20060;-65
2023/03/16 02:07:49;;;;;;;17.58;4.80;;;;;;;;;;5053671;28;20131;-65
2023/03/16 02:10:17;;;;;;;14.20;4.93;;;;;;;;;;5043467;28;20168;-65
2023/03/16 02:12:44;;;;;;;19.67;5.97;;;;;;;;;;5052592;28;20055;-65
2023/03/16 02:15:12;;;;;;;15.32;4.97;;;;;;;;;;5044196;28;20049;-65
2023/03/16 02:17:40;;;;;;;19.67;6.00;;;;;;;;;;5050875;28;20048;-65
2023/03/16 02:20:22;;;;;;;18.67;5.63;;;;;;;;;;5044624;28;20063;-65
2023/03/16 02:22:52;;;;;;;20.08;6.35;;;;;;;;;;5050264;28;20063;-65
2023/03/16 02:25:21;;;;;;;20.15;6.32;;;;;;;;;;5052505;28;20110;-65
2023/03/16 02:27:47;;;;;;;19.35;5.70;;;;;;;;;;5054071;28;20049;-65
2023/03/16 02:30:15;;;;;;;22.40;6.82;;;;;;;;;;5051460;28;20053;-65
2023/03/16 02:32:42;;;;;;;18.20;6.03;;;;;;;;;;5054547;28;20045;-65
2023/03/16 02:35:09;;;;;;;19.80;5.88;;;;;;;;;;5046834;28;20049;-65
2023/03/16 02:37:35;;;;;;;15.82;5.47;;;;;;;;;;5053666;28;20053;-65
2023/03/16 02:40:15;;;;;;;15.07;5.28;;;;;;;;;;5045784;28;20420;-65
2023/03/16 02:42:41;;;;;;;17.83;6.32;;;;;;;;;;5053785;28;20140;-65
2023/03/16 02:45:09;;;;;;;15.05;5.43;;;;;;;;;;5038259;28;20053;-65
2023/03/16 02:47:35;;;;;;;9.75;5.75;;;;;;;;;;5053479;28;20052;-65
2023/03/16 02:50:05;;;;;;;21.10;6.97;;;;;;;;;;5044664;28;20046;-65
2023/03/16 02:52:35;;;;;;;17.77;6.13;;;;;;;;;;5053697;28;20045;-65
2023/03/16 02:55:03;;;;;;;17.75;5.95;;;;;;;;;;5038333;28;20045;-65
2023/03/16 02:57:30;;;;;;;23.65;6.25;;;;;;;;;;5050561;28;20449;-65
2023/03/16 02:59:56;;;;;;;20.20;5.63;;;;;;;;;;5039815;28;20560;-65
2023/03/16 03:02:23;;;;;;;23.10;5.78;;;;;;;;;;5046791;28;20052;-65
2023/03/16 03:04:53;;;;;;;17.60;5.38;;;;;;;;;;5045170;28;20049;-65
2023/03/16 03:07:20;;;;;;;18.95;6.40;;;;;;;;;;5048984;28;20057;-65
2023/03/16 03:09:46;;;;;;;17.05;5.85;;;;;;;;;;5046740;28;20045;-65
2023/03/16 03:12:13;;;;;;;16.95;4.82;;;;;;;;;;5047624;28;20079;-65
2023/03/16 03:14:39;;;;;;;10.43;4.47;;;;;;;;;;5047383;28;20497;-65
2023/03/16 03:17:06;;;;;;;12.40;3.30;;;;;;;;;;5044295;28;20488;-65
2023/03/16 03:19:33;;;;;;;8.55;2.88;;;;;;;;;;5048425;28;20053;-65
2023/03/16 03:22:02;;;;;;;7.43;2.85;;;;;;;;;;5042942;28;20497;-65
2023/03/16 03:24:29;;;;;;;6.78;3.10;;;;;;;;;;5048548;28;20502;-65
2023/03/16 03:26:56;;;;;;;9.57;3.35;;;;;;;;;;5041565;28;20055;-65
2023/03/16 03:29:22;;;;;;;9.93;3.22;;;;;;;;;;5050234;28;20497;-65
2023/03/16 03:31:48;;;;;;;12.18;3.60;;;;;;;;;;5053075;28;20047;-65
2023/03/16 03:34:15;;;;;;;15.20;4.95;;;;;;;;;;5050877;28;20076;-65
2023/03/16 03:36:41;;;;;;;14.45;4.03;;;;;;;;;;5047988;28;20525;-65
2023/03/16 03:39:08;;;;;;;13.77;4.10;;;;;;;;;;5052160;28;20052;-65
2023/03/16 03:41:34;;;;;;;9.23;3.90;;;;;;;;;;5040232;28;20052;-65
2023/03/16 03:44:01;;;;;;;13.05;4.50;;;;;;;;;;5053217;28;20412;-65
2023/03/16 03:46:27;;;;;;;11.95;3.90;;;;;;;;;;5043091;28;20072;-65
2023/03/16 03:48:54;;;;;;;11.27;4.43;;;;;;;;;;5052891;28;20044;-65
2023/03/16 03:51:20;;;;;;;16.27;4.65;;;;;;;;;;5042536;28;20080;-65
2023/03/16 03:53:47;;;;;;;15.65;5.30;;;;;;;;;;5052886;28;20124;-65
2023/03/16 03:56:13;;;;;;;14.07;5.15;;;;;;;;;;5033031;28;20510;-65
2023/03/16 03:58:39;;;;;;;11.57;4.40;;;;;;;;;;5052459;28;20045;-65
2023/03/16 04:01:06;;;;;;;17.52;5.30;;;;;;;;;;5031629;28;20095;-65
2023/03/16 04:03:32;;;;;;;15.90;4.85;;;;;;;;;;5052794;28;20063;-65
2023/03/16 04:05:59;;;;;;;16.15;4.95;;;;;;;;;;5037261;28;20049;-65
2023/03/16 04:08:25;;;;;;;12.32;5.32;;;;;;;;;;5052080;28;20076;-65
2023/03/16 04:10:51;;;;;;;14.27;5.00;;;;;;;;;;5049055;28;20041;-66
2023/03/16 04:13:18;;;;;;;17.20;4.40;;;;;;;;;;5052495;28;20052;-66
2023/03/16 04:15:45;;;;;;;17.98;3.85;;;;;;;;;;5036712;28;20052;-66
2023/03/16 04:18:12;;;;;;;14.30;3.63;;;;;;;;;;5052003;28;20048;-65
2023/03/16 04:20:38;;;;;;;11.35;3.05;;;;;;;;;;5027129;28;20054;-66
2023/03/16 04:23:05;;;;;;;14.00;3.63;;;;;;;;;;5050011;28;20057;-66
2023/03/16 04:25:31;;;;;;;13.43;3.50;;;;;;;;;;5049231;28;20063;-65
2023/03/16 04:27:57;;;;;;;14.43;3.60;;;;;;;;;;5051922;28;20414;-65
2023/03/16 04:30:24;;;;;;;11.38;3.55;;;;;;;;;;5047684;28;20041;-65
2023/03/16 04:32:51;;;;;;;15.48;3.47;;;;;;;;;;5052184;28;20055;-65
2023/03/16 04:35:17;;;;;;;14.93;3.40;;;;;;;;;;5048022;28;20114;-65
2023/03/16 04:37:44;;;;;;;15.90;3.47;;;;;;;;;;5051395;28;20076;-66
2023/03/16 04:40:16;;;;;;;14.38;3.17;;;;;;;;;;5044116;28;20063;-65
2023/03/16 04:42:43;;;;;;;17.08;3.42;;;;;;;;;;5051614;28;20065;-65
2023/03/16 04:45:11;;;;;;;11.02;3.33;;;;;;;;;;5041584;28;20049;-65
2023/03/16 04:47:37;;;;;;;13.80;3.72;;;;;;;;;;5050549;28;20060;-66
2023/03/16 04:50:04;;;;;;;12.23;3.35;;;;;;;;;;5039875;28;20052;-66
2023/03/16 04:52:31;;;;;;;13.48;4.35;;;;;;;;;;5051847;28;20056;-66
2023/03/16 04:54:58;;;;;;;14.27;3.70;;;;;;;;;;5043368;28;20045;-65
2023/03/16 04:57:24;;;;;;;16.42;4.13;;;;;;;;;;5049987;28;20048;-66
2023/03/16 04:59:50;;;;;;;14.77;3.92;;;;;;;;;;5043158;28;20073;-65
2023/03/16 05:02:18;;;;;;;17.60;4.45;;;;;;;;;;5049861;28;20060;-66
2023/03/16 05:04:45;;;;;;;;;;;;;;;;;;5045087;28;20497;-66
2023/03/16 05:07:11;;;;;;;17.23;4.97;;;;;;;;;;5048190;28;20011;-66
2023/03/16 05:09:37;;;;;;;15.55;4.07;;;;;;;;;;5045746;28;20053;-66
2023/03/16 05:12:04;;;;;;;14.32;3.75;;;;;;;;;;5047070;28;20053;-65
2023/03/16 05:14:30;;;;;;;12.95;4.22;;;;;;;;;;5046720;28;20073;-66
2023/03/16 05:16:56;;;;;;;15.05;4.15;;;;;;;;;;5043396;28;20048;-65
2023/03/16 05:19:23;;;;;;;11.93;4.78;;;;;;;;;;5046337;28;20448;-65
2023/03/16 05:21:49;;;;;;;12.63;3.55;;;;;;;;;;5032428;28;20053;-65
2023/03/16 05:24:16;;;;;;;13.88;3.80;;;;;;;;;;5048530;28;20409;-65
2023/03/16 05:26:42;;;;;;;17.70;4.93;;;;;;;;;;5040158;28;20053;-66
2023/03/16 05:29:08;;;;;;;15.13;4.95;;;;;;;;;;5054071;28;20056;-65
2023/03/16 05:31:36;;;;;;;12.20;4.20;;;;;;;;;;5029591;28;20084;-66
2023/03/16 05:34:03;;;;;;;;;;;;;;;;;;5055927;28;20145;-66
2023/03/16 05:36:29;;;;;;;14.88;4.30;;;;;;;;;;5039829;28;19986;-66
2023/03/16 05:38:57;;;;;;;18.05;4.82;;;;;;;;;;5055086;28;20099;-66
2023/03/16 05:41:23;;;;;;;20.80;4.50;;;;;;;;;;5052382;28;20118;-66
2023/03/16 05:43:49;;;;;;;16.00;4.90;;;;;;;;;;5055272;28;20296;-65
2023/03/16 05:46:16;;;;;;;15.63;4.63;;;;;;;;;;5049917;28;20053;-65
2023/03/16 05:48:45;;;;;;;19.13;4.88;;;;;;;;;;5054825;28;20055;-65
2023/03/16 05:51:13;;;;;;;20.05;4.53;;;;;;;;;;5050484;28;20055;-65
2023/03/16 05:53:39;;;;;;;12.02;3.67;;;;;;;;;;5055398;28;20055;-65
2023/03/16 05:56:05;;;;;;;20.02;3.85;;;;;;;;;;5046515;28;20056;-65
2023/03/16 05:58:32;;;;;;;17.58;3.80;;;;;;;;;;5054463;28;20582;-66
2023/03/16 06:01:00;;;;;;;14.82;3.65;;;;;;;;;;5045420;28;20083;-65
2023/03/16 06:03:26;;;;;;;;;;;;;;;;;;5055165;28;20080;-65
2023/03/16 06:05:53;;;;;;;12.52;3.55;;;;;;;;;;5047546;28;19935;-65
2023/03/16 06:08:19;;;;;;;16.20;4.32;;;;;;;;;;5054539;28;20560;-65
2023/03/16 06:10:47;;;;;;;17.45;3.92;;;;;;;;;;5046752;28;20076;-65
2023/03/16 06:13:13;;;;;;;13.60;4.65;;;;;;;;;;5055333;28;20053;-65
2023/03/16 06:15:40;;;;;;;16.48;4.43;;;;;;;;;;5032070;28;20053;-65
2023/03/16 06:18:06;;;;;;;15.95;4.55;;;;;;;;;;5054565;28;20045;-65
2023/03/16 06:20:32;;;;;;;16.50;5.03;;;;;;;;;;5030174;28;20502;-65
2023/03/16 06:22:59;;;;;;;15.73;4.88;;;;;;;;;;5054863;28;20055;-65
2023/03/16 06:25:25;;;;;;;21.75;4.93;;;;;;;;;;5041938;28;20249;-65
2023/03/16 06:27:51;;;;;;;16.95;4.75;;;;;;;;;;5051579;28;20491;-65
2023/03/16 06:30:18;;;;;;;17.67;4.10;;;;;;;;;;5042701;28;20515;-65
2023/03/16 06:32:44;;;;;;;16.38;4.60;;;;;;;;;;5050845;28;20076;-65
2023/03/16 06:35:11;;;;;;;17.05;4.38;;;;;;;;;;5044362;28;20045;-65
2023/03/16 06:37:38;;;;;;;22.38;4.50;;;;;;;;;;5047613;28;20055;-65
2023/03/16 06:40:04;;;;;;;14.80;4.38;;;;;;;;;;5050061;28;20045;-65
2023/03/16 06:42:31;;;;;;;17.00;4.43;;;;;;;;;;5054362;28;20060;-65
2023/03/16 06:44:57;;;;;;;18.98;3.92;;;;;;;;;;5045408;28;20413;-65
2023/03/16 06:47:24;;;;;;;15.73;3.90;;;;;;;;;;5052999;28;20416;-65
2023/03/16 06:49:53;;;;;;;13.83;4.03;;;;;;;;;;5049314;28;20044;-65
2023/03/16 06:52:19;;;;;;;15.98;3.60;;;;;;;;;;5053897;28;20057;-65
2023/03/16 06:54:46;;;;;;;16.83;3.78;;;;;;;;;;5048640;28;20499;-65
2023/03/16 06:57:12;;;;;;;14.18;4.00;;;;;;;;;;5052866;28;20294;-65
2023/03/16 06:59:39;;;;;;;14.95;3.65;;;;;;;;;;5033523;28;20496;-66
2023/03/16 07:02:05;;;;;;;16.10;3.83;;;;;;;;;;5045148;28;20135;-66
2023/03/16 07:04:32;;;;;;;14.00;3.60;;;;;;;;;;5046013;28;20056;-65
2023/03/16 07:07:00;;;;;;;11.68;3.35;;;;;;;;;;5026004;28;20547;-65
2023/03/16 07:09:28;;;;;;;16.20;3.75;;;;;;;;;;5031920;28;20055;-65
2023/03/16 07:11:55;;;;;;;14.20;3.78;;;;;;;;;;5033461;28;20048;-65
2023/03/16 07:14:22;;;;;;;16.38;3.92;;;;;;;;;;5049922;28;20051;-65
2023/03/16 07:16:48;;;;;;;14.77;4.32;;;;;;;;;;5044543;28;20045;-64
2023/03/16 07:19:15;;;;;;;13.10;3.67;;;;;;;;;;5050966;28;20395;-65
2023/03/16 07:21:41;;;;;;;15.10;4.07;;;;;;;;;;5025569;28;20401;-65
2023/03/16 07:24:08;;;;;;;13.88;4.50;;;;;;;;;;5032514;28;20585;-65
2023/03/16 07:26:35;;;;;;;14.98;3.28;;;;;;;;;;5020448;28;20041;-65
2023/03/16 07:29:03;;;;;;;9.65;3.30;;;;;;;;;;5031940;28;20091;-65
2023/03/16 07:31:31;;;;;;;15.05;4.07;;;;;;;;;;5028655;28;20050;-65
2023/03/16 07:33:57;;;;;;;18.23;4.35;;;;;;;;;;5033125;28;20045;-65
2023/03/16 07:36:24;;;;;;;14.02;3.80;;;;;;;;;;5031208;28;20049;-64
2023/03/16 07:38:50;;;;;;;13.90;3.70;;;;;;;;;;5037460;28;20044;-68
2023/03/16 07:41:17;;;;;;;15.02;3.22;;;;;;;;;;5036431;28;20057;-68
2023/03/16 07:43:43;;;;;;;10.10;2.60;;;;;;;;;;5033170;28;20121;-68
2023/03/16 07:46:12;;;;;;;13.48;3.28;;;;;;;;;;5029367;28;20397;-68
2023/03/16 07:48:39;;;;;;;11.70;2.92;;;;;;;;;;5053402;28;20063;-68
2023/03/16 07:51:05;;;;;;;12.88;3.30;;;;;;;;;;5039260;28;20053;-68
2023/03/16 07:53:32;;;;;;;11.90;2.75;;;;;;;;;;5052520;28;20450;-68
2023/03/16 07:55:58;;;;;;;14.05;3.17;;;;;;;;;;5037740;28;20045;-68
2023/03/16 07:58:24;;;;;;;9.48;2.95;;;;;;;;;;5052562;28;20132;-68
2023/03/16 08:00:51;;;;;;;11.05;2.60;;;;;;;;;;5026365;28;20077;-67
2023/03/16 08:03:17;;;;;;;13.35;3.00;;;;;;;;;;5051544;28;20052;-68
2023/03/16 08:05:44;;;;;;;13.48;3.13;;;;;;;;;;5037326;28;20053;-67
2023/03/16 08:08:10;;;;;;;10.10;2.90;;;;;;;;;;5051757;28;20060;-68
2023/03/16 08:10:36;;;;;;;9.40;2.90;;;;;;;;;;5050633;28;20060;-67
2023/03/16 08:13:06;;;;;;;13.15;2.58;;;;;;;;;;5052289;28;20492;-68
2023/03/16 08:15:32;;;;;;;11.93;2.70;;;;;;;;;;5039668;28;20136;-67
2023/03/16 08:18:01;;;;;;;8.25;2.35;;;;;;;;;;5051532;28;20048;-67
2023/03/16 08:20:28;;;;;;;8.75;2.67;;;;;;;;;;5039521;28;20088;-67
2023/03/16 08:22:55;;;;;;;5.65;2.42;;;;;;;;;;5051512;28;20045;-68
2023/03/16 08:25:22;;;;;;;8.10;2.55;;;;;;;;;;5040289;28;20053;-68
2023/03/16 08:27:48;;;;;;;10.20;3.43;;;;;;;;;;5035407;28;20400;-68
2023/03/16 08:30:15;;;;;;;7.32;2.00;;;;;;;;;;5033313;28;20473;-68
2023/03/16 08:32:41;;;;;;;9.60;2.47;;;;;;;;;;5044339;28;20056;-68
2023/03/16 08:35:12;;;;;;;9.75;2.78;;;;;;;;;;5042634;28;20050;-68
2023/03/16 08:37:39;;;;;;;8.70;2.90;;;;;;;;;;5046439;28;20045;-67
2023/03/16 08:40:09;;;;;;;13.73;3.10;;;;;;;;;;5049222;28;20059;-68
2023/03/16 08:42:37;;;;;;;9.57;3.00;;;;;;;;;;5051401;28;20053;-68
2023/03/16 08:45:08;;;;;;;8.23;2.55;;;;;;;;;;5048331;28;20059;-68
2023/03/16 08:47:41;;;;;;;10.23;2.25;;;;;;;;;;5051630;28;20469;-68
2023/03/16 08:50:08;;;;;;;12.75;2.72;;;;;;;;;;5047282;28;20516;-68
2023/03/16 08:52:39;;;;;;;10.33;2.40;;;;;;;;;;5051667;28;20136;-68
2023/03/16 08:55:06;;;;;;;9.20;2.58;;;;;;;;;;5044131;28;20049;-68
2023/03/16 08:57:33;;;;;;;10.13;2.27;;;;;;;;;;5050752;28;20087;-68
2023/03/16 09:00:00;;;;;;;8.43;1.92;;;;;;;;;;5045819;28;20045;-68
2023/03/16 09:02:26;;;;;;;5.88;1.95;;;;;;;;;;5051358;28;20053;-68
2023/03/16 09:04:53;;;;;;;6.80;1.80;;;;;;;;;;5044659;28;20081;-68
2023/03/16 09:07:19;;;;;;;9.00;2.15;;;;;;;;;;5049281;28;20053;-68
2023/03/16 09:09:46;;;;;;;7.20;2.47;;;;;;;;;;5044743;28;20051;-68
2023/03/16 09:12:12;;;;;;;9.10;2.65;;;;;;;;;;5050917;28;20051;-68
2023/03/16 09:14:39;;;;;;;9.43;2.40;;;;;;;;;;5042158;28;20046;-68
2023/03/16 09:17:10;;;;;;;10.05;2.47;;;;;;;;;;5038645;28;20063;-68
2023/03/16 09:19:36;;;;;;;10.15;2.47;;;;;;;;;;5045683;28;20124;-68
2023/03/16 09:22:18;;;;;;;10.52;2.22;;;;;;;;;;5045896;28;20493;-68
2023/03/16 09:24:44;;;;;;;;;;;;;;;;;;5045336;28;20049;-68
2023/03/16 09:27:11;;;;;;;7.43;2.00;;;;;;;;;;5043905;28;19921;-67
2023/03/16 09:29:37;;;;;;;8.73;2.10;;;;;;;;;;5042624;28;20053;-68
2023/03/16 09:32:04;;;;;;;8.07;1.77;;;;;;;;;;5033389;28;20051;-68
2023/03/16 09:34:30;;;;;;;9.32;2.33;;;;;;;;;;5047546;28;20049;-68
2023/03/16 09:36:59;;;;;;;8.95;1.92;;;;;;;;;;5040136;28;20558;-68
2023/03/16 09:39:26;;;;;;;7.60;1.90;;;;;;;;;;5048949;28;20073;-68
2023/03/16 09:42:05;;;;;;;8.88;2.05;;;;;;;;;;5051563;28;20049;-68
2023/03/16 09:44:38;;;;;;;11.32;2.30;;;;;;;;;;5046599;28;20478;-68
2023/03/16 09:47:05;;;;;;;7.13;1.77;;;;;;;;;;5050616;28;20142;-68
2023/03/16 09:49:36;;;;;;;8.73;1.90;;;;;;;;;;5046818;28;20050;-68
2023/03/16 09:52:15;;;;;;;11.27;2.20;;;;;;;;;;5050830;28;20091;-68
2023/03/16 09:54:42;;;;;;;7.13;1.73;;;;;;;;;;5043600;28;20038;-68
2023/03/16 09:57:19;;;;;;;10.45;1.80;;;;;;;;;;5050713;28;20057;-68
2023/03/16 09:59:46;;;;;;;6.38;1.60;;;;;;;;;;5045366;28;20044;-68
2023/03/16 10:02:30;;;;;;;9.75;2.10;;;;;;;;;;5050393;28;20484;-69
2023/03/16 10:05:11;;;;;;;9.00;1.70;;;;;;;;;;5043267;28;20164;-69
2023/03/16 10:07:41;;;;;;;6.97;1.50;;;;;;;;;;5050742;28;20187;-69
2023/03/16 10:10:32;;;;;;;8.50;1.70;;;;;;;;;;5042988;28;20080;-69
2023/03/16 10:13:00;;;;;;;7.63;1.80;;;;;;;;;;5041423;28;20591;-69
2023/03/16 10:15:29;;;;;;;7.80;1.50;;;;;;;;;;5042028;28;20464;-69
2023/03/16 10:18:02;;;;;;;8.40;1.80;;;;;;;;;;5054268;28;20045;-69
2023/03/16 10:20:32;;;;;;;7.32;1.60;;;;;;;;;;5031861;28;20492;-68
2023/03/16 10:23:00;;;;;;;7.50;1.30;;;;;;;;;;5026546;28;20078;-68
2023/03/16 10:25:45;;;;;;;5.38;1.30;;;;;;;;;;5041704;28;20507;-68
2023/03/16 10:28:13;;;;;;;6.47;1.25;;;;;;;;;;5033025;28;20132;-68
2023/03/16 10:30:41;;;;;;;10.35;1.98;;;;;;;;;;5021812;28;20482;-69
2023/03/16 10:33:21;;;;;;;9.70;1.55;;;;;;;;;;5054382;28;20053;-69
2023/03/16 10:35:54;;;;;;;7.55;1.90;;;;;;;;;;5039163;28;20564;-68
2023/03/16 10:38:29;;;;;;;8.45;1.40;;;;;;;;;;5040378;28;20499;-69
2023/03/16 10:40:59;;;;;;;5.43;1.38;;;;;;;;;;5051559;28;20051;-68
2023/03/16 10:43:26;;;;;;;5.93;1.27;;;;;;;;;;5054106;28;20057;-69
2023/03/16 10:45:58;;;;;;;9.75;1.85;;;;;;;;;;5049532;28;20127;-68
2023/03/16 10:48:25;;;;;;;10.55;2.08;;;;;;;;;;5053430;28;20048;-68
2023/03/16 10:50:55;;;;;;;7.22;1.73;;;;;;;;;;5049595;28;20063;-68
2023/03/16 10:53:27;;;;;;;7.18;1.52;;;;;;;;;;5054190;28;20123;-68
2023/03/16 10:55:58;;;;;;;6.82;1.52;;;;;;;;;;5048228;28;20057;-68
2023/03/16 10:58:26;;;;;;;6.03;1.38;;;;;;;;;;5053575;28;20121;-69
2023/03/16 11:00:56;;;;;;;6.13;1.38;;;;;;;;;;5047709;28;20505;-68
2023/03/16 11:03:32;;;;;;;7.90;1.30;;;;;;;;;;5053303;28;20421;-68
2023/03/16 11:06:02;;;;;;;6.80;1.40;;;;;;;;;;5046452;28;20499;-68
2023/03/16 11:08:40;;;;;;;5.97;1.58;;;;;;;;;;5053303;28;20489;-68
2023/03/16 11:11:17;;;;;;;6.93;1.52;;;;;;;;;;5041187;28;20063;-69
2023/03/16 11:13:47;;;;;;;7.18;1.92;;;;;;;;;;5053573;28;20108;-68
2023/03/16 11:16:15;;;;;;;5.95;1.55;;;;;;;;;;5041067;28;20049;-69
2023/03/16 11:18:47;;;;;;;8.95;1.52;;;;;;;;;;5053442;28;20052;-69
2023/03/16 11:21:21;;;;;;;5.75;1.23;;;;;;;;;;5039604;28;20049;-69
2023/03/16 11:23:50;;;;;;;5.40;1.48;;;;;;;;;;5053002;28;20048;-68
2023/03/16 11:26:32;;;;;;;6.47;1.27;;;;;;;;;;5026916;28;20052;-69
2023/03/16 11:29:08;;;;;;;8.02;1.75;;;;;;;;;;5053221;28;20057;-68
2023/03/16 11:31:49;;;;;;;3.67;1.50;;;;;;;;;;5040241;28;20098;-68
2023/03/16 11:34:21;;;;;;;7.20;1.70;;;;;;;;;;5051205;28;20048;-69
2023/03/16 11:36:53;;;;;;;9.23;2.03;;;;;;;;;;5040017;28;20040;-68
2023/03/16 11:39:45;;;;;;;6.05;1.45;;;;;;;;;;5050371;28;20481;-68
2023/03/16 11:42:36;;;;;;;7.50;1.80;;;;;;;;;;5037582;28;20053;-68
2023/03/16 11:45:05;;;;;;;5.43;1.42;;;;;;;;;;5048593;28;20486;-68
2023/03/16 11:47:53;;;;;;;6.63;1.40;;;;;;;;;;5051668;28;20051;-68
2023/03/16 11:50:19;;;;;;;5.53;1.45;;;;;;;;;;5048620;28;20515;-68
2023/03/16 11:52:56;;;;;;;7.15;1.52;;;;;;;;;;5052669;28;20071;-68
2023/03/16 11:55:35;;;;;;;4.53;1.55;;;;;;;;;;5047724;28;20132;-68
2023/03/16 11:58:27;;;;;;;7.50;1.40;;;;;;;;;;5052346;28;20055;-68
2023/03/16 12:00:54;;;;;;;6.22;1.50;;;;;;;;;;5045599;28;20548;-68
2023/03/16 12:03:31;;;;;;;6.28;1.67;;;;;;;;;;5052591;28;20084;-68
2023/03/16 12:05:57;;;;;;;9.13;1.70;;;;;;;;;;5045665;28;20045;-68
2023/03/16 12:08:30;;;;;;;4.97;1.65;;;;;;;;;;5052226;28;20469;-68
2023/03/16 12:11:02;;;;;;;6.53;1.70;;;;;;;;;;5045198;28;20055;-68
2023/03/16 12:13:47;;;;;;;8.38;1.80;;;;;;;;;;5052695;28;20049;-69
2023/03/16 12:16:14;;;;;;;5.68;1.80;;;;;;;;;;5030107;28;20055;-69
2023/03/16 12:18:46;;;;;;;5.70;1.80;;;;;;;;;;5052300;28;20045;-68
2023/03/16 12:21:31;;;;;;;10.77;2.75;;;;;;;;;;5038928;28;20555;-68
2023/03/16 12:24:02;;;;;;;7.00;2.08;;;;;;;;;;5052544;28;20405;-68
2023/03/16 12:26:33;;;;;;;6.18;2.10;;;;;;;;;;5037941;28;20088;-68
2023/03/16 12:29:03;;;;;;;9.38;1.90;;;;;;;;;;5052203;28;20052;-68
2023/03/16 12:31:40;;;;;;;7.78;2.10;;;;;;;;;;5025405;28;20055;-68
2023/03/16 12:34:10;;;;;;;6.05;1.95;;;;;;;;;;5051672;28;20060;-68
2023/03/16 12:36:43;;;;;;;6.47;2.30;;;;;;;;;;5023579;28;20041;-68
2023/03/16 12:39:28;;;;;;;7.10;2.83;;;;;;;;;;5051250;28;20045;-68
2023/03/16 12:41:55;;;;;;;6.47;1.63;;;;;;;;;;5026894;28;20098;-68
2023/03/16 12:44:40;;;;;;;6.75;2.20;;;;;;;;;;5048575;28;20059;-68
2023/03/16 12:47:11;;;;;;;7.75;2.10;;;;;;;;;;5050681;28;20053;-68
2023/03/16 12:49:37;;;;;;;5.97;1.98;;;;;;;;;;5046129;28;20398;-68
2023/03/16 12:52:05;;;;;;;7.40;2.30;;;;;;;;;;5051615;28;20063;-68
2023/03/16 12:54:32;;;;;;;8.07;2.00;;;;;;;;;;5044841;28;20405;-68
2023/03/16 12:57:00;;;;;;;6.95;1.98;;;;;;;;;;5023816;28;20048;-68
2023/03/16 12:59:35;;;;;;;7.32;2.45;;;;;;;;;;5046298;28;20092;-68
2023/03/16 13:02:02;;;;;;;7.95;1.88;;;;;;;;;;5050966;28;20059;-68
2023/03/16 13:04:39;;;;;;;11.45;2.30;;;;;;;;;;5047040;28;20125;-68
2023/03/16 13:07:18;;;;;;;7.88;1.88;;;;;;;;;;5050464;28;20102;-68
2023/03/16 13:09:51;;;;;;;7.10;2.03;;;;;;;;;;5041084;28;20401;-68
2023/03/16 13:12:21;;;;;;;6.15;2.10;;;;;;;;;;5024351;28;20055;-68
2023/03/16 13:14:53;;;;;;;8.48;2.30;;;;;;;;;;5039890;28;20049;-68
2023/03/16 13:17:19;;;;;;;7.18;2.17;;;;;;;;;;5042680;28;20124;-68
2023/03/16 13:19:58;;;;;;;9.85;2.33;;;;;;;;;;5044715;28;20480;-68
2023/03/16 13:22:26;;;;;;;8.55;1.92;;;;;;;;;;5046725;28;20411;-68
2023/03/16 13:25:11;;;;;;;8.27;1.95;;;;;;;;;;5043468;28;20497;-67
2023/03/16 13:27:39;;;;;;;7.55;1.90;;;;;;;;;;5047564;28;20411;-68
2023/03/16 13:30:35;;;;;;;10.10;2.53;;;;;;;;;;5034885;28;20100;-68
2023/03/16 13:33:15;;;;;;;6.15;1.95;;;;;;;;;;5040762;28;20049;-68
2023/03/16 13:35:41;;;;;;;12.63;2.90;;;;;;;;;;5037287;28;20046;-68
2023/03/16 13:38:13;;;;;;;8.57;2.58;;;;;;;;;;5050102;28;20080;-68
2023/03/16 13:40:47;;;;;;;11.25;2.70;;;;;;;;;;5048987;28;20072;-68
2023/03/16 13:43:14;;;;;;;9.13;2.85;;;;;;;;;;5050970;28;20394;-68
2023/03/16 13:45:41;;;;;;;9.27;2.75;;;;;;;;;;5046705;28;20049;-68
2023/03/16 13:48:11;;;;;;;8.30;2.88;;;;;;;;;;5051321;28;20049;-68
2023/03/16 13:50:40;;;;;;;7.45;2.47;;;;;;;;;;5049328;28;20049;-68
2023/03/16 13:53:18;;;;;;;10.45;3.03;;;;;;;;;;5055275;28;20544;-68
2023/03/16 13:55:46;;;;;;;7.78;3.03;;;;;;;;;;5047640;28;20059;-68
2023/03/16 13:58:23;;;;;;;10.93;3.00;;;;;;;;;;5054703;28;20460;-68
2023/03/16 14:00:53;;;;;;;12.27;3.88;;;;;;;;;;5049417;28;20049;-68
2023/03/16 14:03:21;;;;;;;9.25;3.30;;;;;;;;;;5054752;28;20072;-68
2023/03/16 14:05:48;;;;;;;12.13;3.33;;;;;;;;;;5047735;28;20049;-68
2023/03/16 14:08:16;;;;;;;12.65;3.42;;;;;;;;;;5054044;28;20080;-68
2023/03/16 14:10:43;;;;;;;10.88;3.35;;;;;;;;;;5042273;28;20570;-68
2023/03/16 14:13:31;;;;;;;9.98;3.40;;;;;;;;;;5054923;28;20045;-68
2023/03/16 14:16:18;;;;;;;9.23;3.28;;;;;;;;;;5032156;28;20504;-67
2023/03/16 14:18:51;;;;;;;11.95;3.35;;;;;;;;;;5054308;28;20053;-68
2023/03/16 14:21:24;;;;;;;8.82;3.42;;;;;;;;;;5031069;28;20408;-68
2023/03/16 14:23:58;;;;;;;11.68;3.88;;;;;;;;;;5054815;28;20482;-68
2023/03/16 14:26:25;;;;;;;12.35;3.53;;;;;;;;;;5028138;28;20053;-68
2023/03/16 14:28:53;;;;;;;8.77;3.37;;;;;;;;;;5054412;28;20480;-68
2023/03/16 14:31:20;;;;;;;9.07;3.40;;;;;;;;;;5039597;28;20044;-68
2023/03/16 14:33:47;;;;;;;12.40;3.57;;;;;;;;;;5054430;28;20045;-68
2023/03/16 14:36:14;;;;;;;11.02;3.58;;;;;;;;;;5038107;28;20304;-68
2023/03/16 14:38:42;;;;;;;9.70;3.83;;;;;;;;;;5053861;28;20051;-68
2023/03/16 14:41:09;;;;;;;;;;;;;;;;;;5052341;28;20129;-68
2023/03/16 14:43:37;;;;;;;9.75;3.20;;;;;;;;;;5054177;28;20402;-68
2023/03/16 14:46:04;;;;;;;9.55;3.72;;;;;;;;;;5049799;28;20061;-68
2023/03/16 14:48:31;;;;;;;;;;;;;;;;;;5054306;28;20075;-68
2023/03/16 14:50:59;;;;;;;9.90;3.88;;;;;;;;;;5049852;28;19931;-68